• Join FlightAware (Why Join?)
  • Login
  • US Flag 
09:45AM EDT


 

Airport Tracker/Info


-or-


 

Live Flight TrackerFlight Track Log ✈ EJA929 ✈ 19-Mar-2014 ✈ KMKE - KSTL

Flight Track Log - Related Links

Times and Time Zones

All times are in EDT time to prevent confusion due to time zone crossing. See the EJA929 flight status page for this flight to view local times or setup timezone preferences in your user account.

Time Position Orientation Groundspeed Altitude Reporting Facility
EDT Latitude Longitude Course Direction KTS MPH feet Rate Location/Type
06:50PM 42.9333 -87.9167 180° South 153 176 1,800  Level KMKE
06:51PM 42.9000 -87.9167 180° South 221 254 5,800 3,660 Climbing KMKE
06:53PM 42.8233 -87.8419 144° Southeast 264 304 10,300 3,300 Climbing Chicago Center
06:54PM 42.7392 -87.8108 165° South 311 358 13,600 3,300 Climbing Chicago Center
06:55PM 42.6164 -87.7911 173° South 366 421 17,200 3,180 Climbing Chicago Center
06:56PM 42.5189 -87.8092 188° South 353 406 20,200 2,700 Climbing Chicago Center
06:57PM 42.4186 -87.8278 188° South 362 417 22,900 2,400 Climbing Chicago Center
06:58PM 42.3133 -87.8483 188° South 375 432 25,300 2,220 Climbing Chicago Center
06:59PM 42.2025 -87.8678 187° South 395 455 27,500 1,260 Climbing Chicago Center
07:00PM 42.0850 -87.8919 189° South 419 482 28,000 240 Climbing Chicago Center
07:01PM 41.9283 -87.9200 188° South 465 535 28,000  Level Chicago Center
07:02PM 41.7950 -87.9450 188° South 483 556 28,000  Level Chicago Center
07:03PM 41.6625 -87.9692 188° South 483 556 28,000  Level Chicago Center
07:04PM 41.5286 -87.9933 188° South 485 558 28,000  Level Chicago Center
07:05PM 41.3794 -88.0222 188° South 484 557 28,000  Level Chicago Center
07:06PM 41.2558 -88.0436 187° South 476 548 28,000  Level Chicago Center
07:07PM 41.1242 -88.0678 188° South 477 549 28,000  Level Chicago Center
07:08PM 40.9925 -88.0919 188° South 479 551 28,000  Level Chicago Center
07:09PM 40.8372 -88.1247 189° South 474 545 28,000  Level Chicago Center
07:10PM 40.7192 -88.1931 204° Southwest 463 533 28,000  Level Chicago Center
07:11PM 40.6050 -88.2633 205° Southwest 457 526 28,000  Level Chicago Center
07:12PM 40.4883 -88.3339 205° Southwest 461 531 28,000  Level Chicago Center
07:13PM 40.3722 -88.4056 205° Southwest 463 533 28,000  Level Chicago Center
07:14PM 40.2356 -88.4872 205° Southwest 454 522 28,000  Level Chicago Center
07:15PM 40.1283 -88.5522 205° Southwest 457 526 28,000  Level Chicago Center
07:16PM 40.0139 -88.6200 204° Southwest 452 520 28,000  Level Chicago Center
07:17PM 39.8997 -88.6881 205° Southwest 450 518 28,000  Level Chicago Center
07:18PM 39.8081 -88.7414 204° Southwest 449 517 28,000  Level Kansas City Center
07:19PM 39.6736 -88.8217 205° Southwest 447 514 28,000  Level Kansas City Center
07:20PM 39.5622 -88.8872 204° Southwest 446 513 28,000 -960 Level Kansas City Center
07:21PM 39.4503 -88.9539 205° Southwest 444 511 26,000 -1,920 Descending Kansas City Center
07:22PM 39.3497 -89.0114 204° Southwest 414 476 24,000 -1,920 Descending Kansas City Center
07:23PM 39.2625 -89.0644 205° Southwest 364 419 22,100 -1,860 Descending Kansas City Center
07:24PM 39.1789 -89.1139 205° Southwest 338 389 20,300 -1,860 Descending Kansas City Center
07:25PM 39.0906 -89.1894 214° Southwest 324 373 18,300 -1,800 Descending Kansas City Center
07:26PM 39.0647 -89.2911 252° West 302 348 16,600 -1,620 Descending Kansas City Center
07:28PM 39.0422 -89.3911 254° West 296 341 15,000 -1,560 Descending Kansas City Center
07:29PM 39.0194 -89.4931 254° West 296 341 13,400 -1,560 Descending Kansas City Center
07:30PM 38.9961 -89.5936 253° West 296 341 11,800 -1,560 Descending Kansas City Center
07:31PM 38.9381 -89.6692 225° Southwest 295 339 10,200 -900 Descending Kansas City Center
07:32PM 38.8722 -89.7497 224° Southwest 279 321 10,000 -660 Descending Kansas City Center
07:33PM 38.8214 -89.8150 225° Southwest 264 304 8,900 -1,320 Descending Kansas City Center
07:34PM 38.7686 -89.8800 224° Southwest 263 303 7,300 -1,680 Descending Kansas City Center
07:35PM 38.7383 -89.9572 243° Southwest 255 293 5,500 -1,440 Descending Kansas City Center
07:36PM 38.7122 -90.0344 247° West 243 280 4,400 -960 Descending Kansas City Center
07:37PM 38.6886 -90.1072 247° West 231 266 3,500 -720 Descending Kansas City Center
07:38PM 38.6875 -90.1833 269° West 193 222 3,000 -660 Descending Kansas City Center
07:39PM 38.6919 -90.2447 275° West 185 213 2,200 -720 Descending Kansas City Center
07:40PM 38.7136 -90.2889 302° West 162 186 1,600 -660 Descending Kansas City Center
07:41PM 38.7311 -90.3247 302° West 137 158 900 -480 Descending Kansas City Center
07:42PM 38.7503 -90.3619 303° West 126 145 600 -300 Descending Kansas City Center